createdAt,value
2023-01-17T00:05:18.288Z,9.05
2023-01-17T00:10:25.754Z,8.50
2023-01-17T00:15:29.551Z,11.30
2023-01-17T00:20:50.925Z,11.88
2023-01-17T00:26:05.578Z,9.90
2023-01-17T00:31:09.054Z,5.70
2023-01-17T00:36:11.887Z,5.13
2023-01-17T00:41:14.765Z,3.50
2023-01-17T00:46:35.498Z,4.45
2023-01-17T00:51:57.145Z,4.75
2023-01-17T00:57:18.663Z,3.15
2023-01-17T01:02:39.886Z,3.88
2023-01-17T01:08:00.394Z,3.35
2023-01-17T01:13:21.266Z,2.92
2023-01-17T01:18:41.831Z,2.97
2023-01-17T01:24:02.480Z,1.35
2023-01-17T01:29:23.010Z,3.10
2023-01-17T01:34:24.888Z,1.08
2023-01-17T01:39:26.834Z,1.42
2023-01-17T01:44:49.721Z,2.08
2023-01-17T01:49:51.917Z,1.00
2023-01-17T01:55:00.894Z,1.75
2023-01-17T02:00:07.790Z,3.15
2023-01-17T02:05:16.913Z,0.93
2023-01-17T02:10:18.982Z,2.25
2023-01-17T02:15:26.282Z,1.10
2023-01-17T02:20:58.926Z,1.45
2023-01-17T02:26:31.229Z,1.48
2023-01-17T02:31:51.629Z,1.52
2023-01-17T02:37:11.911Z,0.63
2023-01-17T02:42:18.283Z,0.38
2023-01-17T02:47:26.795Z,1.08
2023-01-17T02:52:34.483Z,0.40
2023-01-17T02:57:55.101Z,0.30
2023-01-17T03:03:05.703Z,0.30
2023-01-17T03:08:08.162Z,0.22
2023-01-17T03:13:10.138Z,0.63
2023-01-17T03:18:15.094Z,0.30
2023-01-17T03:23:16.903Z,0.55
2023-01-17T03:28:18.730Z,0.20
2023-01-17T03:33:20.570Z,0.20
2023-01-17T03:38:22.492Z,0.43
2023-01-17T03:43:24.331Z,0.35
2023-01-17T03:48:26.139Z,0.28
2023-01-17T03:53:27.947Z,0.82
2023-01-17T03:58:29.792Z,0.73
2023-01-17T04:03:31.675Z,0.70
2023-01-17T04:08:33.518Z,0.38
2023-01-17T04:13:35.364Z,0.47
2023-01-17T04:18:37.290Z,1.27
2023-01-17T04:23:39.161Z,1.58
2023-01-17T04:28:41.012Z,2.22
2023-01-17T04:33:43.147Z,1.15
2023-01-17T04:38:44.978Z,2.03
2023-01-17T04:43:46.868Z,3.50
2023-01-17T04:48:48.707Z,0.68
2023-01-17T04:53:50.585Z,2.20
2023-01-17T04:58:52.408Z,0.50
2023-01-17T05:03:54.284Z,3.42
2023-01-17T05:08:56.133Z,1.88
2023-01-17T05:13:57.963Z,1.65
2023-01-17T05:18:59.802Z,1.23
2023-01-17T05:24:01.688Z,1.40
2023-01-17T05:29:03.623Z,1.45
2023-01-17T05:34:05.463Z,1.00
2023-01-17T05:39:07.381Z,4.93
2023-01-17T05:44:09.294Z,2.58
2023-01-17T05:49:11.149Z,4.25
2023-01-17T05:54:13.077Z,2.53
2023-01-17T05:59:17.233Z,2.63
2023-01-17T06:04:20.720Z,1.15
2023-01-17T06:09:22.648Z,3.75
2023-01-17T06:14:24.673Z,1.98
2023-01-17T06:19:26.668Z,1.58
2023-01-17T06:24:28.615Z,2.13
2023-01-17T06:29:30.542Z,3.92
2023-01-17T06:34:32.479Z,1.65
2023-01-17T06:39:34.595Z,4.68
2023-01-17T06:44:36.546Z,2.38
2023-01-17T06:49:38.416Z,1.85
2023-01-17T06:54:40.305Z,13.63
2023-01-17T06:59:42.180Z,7.13
2023-01-17T07:04:44.219Z,3.50
2023-01-17T07:09:46.264Z,1.75
2023-01-17T07:14:48.089Z,2.08
2023-01-17T07:19:50.022Z,1.70
2023-01-17T07:24:53.614Z,1.65
2023-01-17T07:29:55.586Z,2.63
2023-01-17T07:34:58.206Z,1.25
2023-01-17T07:40:02.542Z,1.65
2023-01-17T07:45:04.938Z,1.30
2023-01-17T07:50:07.916Z,1.58
2023-01-17T07:55:14.007Z,2.17
2023-01-17T08:00:16.468Z,2.28
2023-01-17T08:05:18.340Z,2.63
2023-01-17T08:10:20.456Z,2.45
2023-01-17T08:15:23.651Z,2.47
2023-01-17T08:20:27.991Z,2.90
2023-01-17T08:25:30.307Z,2.10
2023-01-17T08:30:32.139Z,1.50
2023-01-17T08:35:36.117Z,6.20
2023-01-17T08:40:38.333Z,3.83
2023-01-17T08:45:43.628Z,1.95
2023-01-17T08:50:46.037Z,4.10
2023-01-17T08:55:48.157Z,1.30
2023-01-17T09:00:50.141Z,6.72
2023-01-17T09:06:20.457Z,5.35
2023-01-17T09:11:22.277Z,1.63
2023-01-17T09:16:24.334Z,2.55
2023-01-17T09:21:26.958Z,1.67
2023-01-17T09:26:30.081Z,2.53
2023-01-17T09:31:31.961Z,3.10
2023-01-17T09:36:34.065Z,2.45
2023-01-17T09:41:44.997Z,2.85
2023-01-17T09:46:50.129Z,2.38
2023-01-17T09:51:53.834Z,2.53
2023-01-17T09:57:40.586Z,2.70
2023-01-17T10:02:57.455Z,1.33
2023-01-17T10:08:36.759Z,2.97
2023-01-17T10:14:01.403Z,1.30
2023-01-17T10:19:37.177Z,0.80
2023-01-17T10:25:01.501Z,0.88
2023-01-17T10:30:22.806Z,9.15
2023-01-17T10:35:33.459Z,4.32
2023-01-17T10:40:46.735Z,2.22
2023-01-17T10:45:54.449Z,4.55
2023-01-17T10:51:10.839Z,5.05
2023-01-17T10:56:17.423Z,4.50
2023-01-17T11:01:21.037Z,2.92
2023-01-17T11:06:25.720Z,2.65
2023-01-17T11:11:36.321Z,1.60
2023-01-17T11:16:38.575Z,1.77
2023-01-17T11:21:50.291Z,1.70
2023-01-17T11:26:52.619Z,1.50
2023-01-17T11:31:56.344Z,1.98
2023-01-17T11:37:18.417Z,1.52
2023-01-17T11:42:38.461Z,2.38
2023-01-17T11:47:40.324Z,3.50
2023-01-17T11:52:42.317Z,2.55
2023-01-17T11:57:50.720Z,1.13
2023-01-17T12:03:15.347Z,1.85
2023-01-17T12:08:38.669Z,1.85
2023-01-17T12:14:00.863Z,2.95
2023-01-17T12:19:18.581Z,2.47
2023-01-17T12:24:32.602Z,1.60
2023-01-17T12:29:49.533Z,4.13
2023-01-17T12:35:12.340Z,2.30
2023-01-17T12:40:23.611Z,5.47
2023-01-17T12:45:34.577Z,4.07
2023-01-17T12:50:39.128Z,3.50
2023-01-17T12:56:11.268Z,3.05
2023-01-17T13:01:28.495Z,3.10
2023-01-17T13:07:00.707Z,1.92
2023-01-17T13:12:10.626Z,2.55
2023-01-17T13:17:37.463Z,5.07
2023-01-17T13:22:40.768Z,1.20
2023-01-17T13:28:24.412Z,1.42
2023-01-17T13:33:50.131Z,1.80
2023-01-17T13:38:57.719Z,6.10
2023-01-17T13:44:21.062Z,0.98
2023-01-17T13:49:34.191Z,4.55
2023-01-17T13:54:47.679Z,2.63
2023-01-17T13:59:50.341Z,1.42
2023-01-17T14:05:21.461Z,1.23
2023-01-17T14:10:32.383Z,1.25
2023-01-17T14:15:49.916Z,3.85
2023-01-17T14:21:08.018Z,1.02
2023-01-17T14:26:21.625Z,4.07
2023-01-17T14:31:24.705Z,12.27
2023-01-17T14:36:26.691Z,2.70
2023-01-17T14:41:29.743Z,1.90
2023-01-17T14:46:32.692Z,5.18
2023-01-17T14:51:35.592Z,2.60
2023-01-17T14:56:37.719Z,1.90
2023-01-17T15:01:41.060Z,6.28
2023-01-17T15:06:44.009Z,12.10
2023-01-17T15:11:48.242Z,8.25
2023-01-17T15:16:52.185Z,8.13
2023-01-17T15:21:54.836Z,3.95
2023-01-17T15:26:56.859Z,7.43
2023-01-17T15:32:01.649Z,9.38
2023-01-17T15:37:08.047Z,14.40
2023-01-17T15:42:21.060Z,11.10
2023-01-17T15:47:33.739Z,12.18
2023-01-17T15:52:49.365Z,16.83
2023-01-17T15:57:51.185Z,29.80
2023-01-17T16:02:58.981Z,22.92
2023-01-17T16:08:04.448Z,18.70
2023-01-17T16:13:07.980Z,14.88
2023-01-17T16:18:24.672Z,15.25
2023-01-17T16:23:27.862Z,11.48
2023-01-17T16:28:29.690Z,15.38
2023-01-17T16:33:31.522Z,12.75
2023-01-17T16:38:33.408Z,18.55
2023-01-17T16:43:35.304Z,14.95
2023-01-17T16:48:37.917Z,19.77
2023-01-17T16:53:39.815Z,19.55
2023-01-17T16:58:41.803Z,28.15
2023-01-17T17:03:44.605Z,16.38
2023-01-17T17:08:46.487Z,18.00
2023-01-17T17:13:49.965Z,24.77
2023-01-17T17:19:00.427Z,19.05
2023-01-17T17:24:02.621Z,32.92
2023-01-17T17:29:06.129Z,17.52
2023-01-17T17:34:10.712Z,25.75
2023-01-17T17:39:14.997Z,26.45
2023-01-17T17:44:17.838Z,34.10
2023-01-17T17:49:21.883Z,34.83
2023-01-17T17:54:24.799Z,28.02
2023-01-17T17:59:26.740Z,35.60
2023-01-17T18:04:28.670Z,31.15
2023-01-17T18:09:30.672Z,25.95
2023-01-17T18:14:32.622Z,25.48
2023-01-17T18:19:34.441Z,20.80
2023-01-17T18:24:36.271Z,25.75
2023-01-17T18:29:38.117Z,21.25
2023-01-17T18:34:41.631Z,23.42
2023-01-17T18:39:43.922Z,30.05
2023-01-17T18:44:45.760Z,23.60
2023-01-17T18:49:47.597Z,24.85
2023-01-17T18:54:49.438Z,29.90
2023-01-17T18:59:51.296Z,25.23
2023-01-17T19:04:53.086Z,22.00
2023-01-17T19:09:54.994Z,16.33
2023-01-17T19:14:56.772Z,13.00
2023-01-17T19:19:58.573Z,20.20
2023-01-17T19:25:00.456Z,14.05
2023-01-17T19:30:02.293Z,12.73
2023-01-17T19:35:04.318Z,22.65
2023-01-17T19:40:08.368Z,12.50
2023-01-17T19:45:12.348Z,13.27
2023-01-17T19:50:15.050Z,23.92
2023-01-17T19:55:17.810Z,22.92
2023-01-17T20:00:24.040Z,22.58
2023-01-17T20:05:29.147Z,21.55
2023-01-17T20:10:31.421Z,16.27
2023-01-17T20:15:34.368Z,15.13
2023-01-17T20:20:39.588Z,14.25
2023-01-17T20:25:59.115Z,11.82
2023-01-17T20:31:15.018Z,12.00
2023-01-17T20:36:17.965Z,15.27
2023-01-17T20:41:24.198Z,17.20
2023-01-17T20:46:29.150Z,18.42
2023-01-17T20:51:34.474Z,19.40
2023-01-17T20:56:37.845Z,28.85
2023-01-17T21:01:40.294Z,15.70
2023-01-17T21:06:44.127Z,19.00
2023-01-17T21:11:46.066Z,17.60
2023-01-17T21:16:47.980Z,16.90
2023-01-17T21:21:51.199Z,21.52
2023-01-17T21:26:53.023Z,18.98
2023-01-17T21:31:55.974Z,17.38
2023-01-17T21:36:57.825Z,17.30
2023-01-17T21:41:59.695Z,19.00
2023-01-17T21:47:02.007Z,16.17
2023-01-17T21:52:04.258Z,23.25
2023-01-17T21:57:24.976Z,17.35
2023-01-17T22:02:27.029Z,22.15
2023-01-17T22:07:29.274Z,15.68
2023-01-17T22:12:31.260Z,17.15
2023-01-17T22:17:33.126Z,19.02
2023-01-17T22:22:35.217Z,21.67
2023-01-17T22:27:37.060Z,18.48
2023-01-17T22:32:39.746Z,17.48
2023-01-17T22:37:41.715Z,21.10
2023-01-17T22:42:44.116Z,11.43
2023-01-17T22:47:46.136Z,12.43
2023-01-17T22:52:48.041Z,12.68
2023-01-17T22:57:50.216Z,14.38
2023-01-17T23:02:52.159Z,18.65
2023-01-17T23:07:54.134Z,9.35
2023-01-17T23:12:56.310Z,14.27
2023-01-17T23:18:16.899Z,10.27
2023-01-17T23:23:18.698Z,7.78
2023-01-17T23:28:20.904Z,9.55
2023-01-17T23:33:22.843Z,9.30
2023-01-17T23:38:29.740Z,7.88
2023-01-17T23:43:32.994Z,8.48
2023-01-17T23:48:34.818Z,14.68
2023-01-17T23:53:38.445Z,13.70
2023-01-17T23:58:40.592Z,13.07
